sensor_id;sensor_type;location;lat;lon;timestamp;pressure;altitude;pressure_sealevel;temperature;humidity
75513;BME280;64090;49.770;18.760;2022-12-29T00:01:52;97684.36;;;2.72;67.90
75513;BME280;64090;49.770;18.760;2022-12-29T00:04:55;97686.30;;;2.70;67.94
75513;BME280;64090;49.770;18.760;2022-12-29T00:07:58;97684.70;;;2.69;68.01
75513;BME280;64090;49.770;18.760;2022-12-29T00:11:01;97684.35;;;2.69;68.01
75513;BME280;64090;49.770;18.760;2022-12-29T00:14:04;97682.18;;;2.68;68.42
75513;BME280;64090;49.770;18.760;2022-12-29T00:17:28;97683.85;;;2.67;68.11
75513;BME280;64090;49.770;18.760;2022-12-29T00:20:33;97684.30;;;2.66;68.07
75513;BME280;64090;49.770;18.760;2022-12-29T00:23:55;97685.97;;;2.65;68.25
75513;BME280;64090;49.770;18.760;2022-12-29T00:27:17;97675.96;;;2.64;68.24
75513;BME280;64090;49.770;18.760;2022-12-29T00:30:39;97674.38;;;2.62;68.56
75513;BME280;64090;49.770;18.760;2022-12-29T00:34:01;97664.95;;;2.58;68.60
75513;BME280;64090;49.770;18.760;2022-12-29T00:37:22;97650.97;;;2.56;68.61
75513;BME280;64090;49.770;18.760;2022-12-29T00:40:46;97645.09;;;2.56;68.55
75513;BME280;64090;49.770;18.760;2022-12-29T00:44:10;97642.67;;;2.57;68.75
75513;BME280;64090;49.770;18.760;2022-12-29T00:47:15;97637.48;;;2.56;68.73
75513;BME280;64090;49.770;18.760;2022-12-29T00:50:19;97633.52;;;2.57;68.66
75513;BME280;64090;49.770;18.760;2022-12-29T00:53:22;97634.05;;;2.59;68.79
75513;BME280;64090;49.770;18.760;2022-12-29T00:56:25;97632.61;;;2.59;68.59
75513;BME280;64090;49.770;18.760;2022-12-29T00:59:28;97636.13;;;2.61;68.57
75513;BME280;64090;49.770;18.760;2022-12-29T01:02:31;97640.33;;;2.61;68.67
75513;BME280;64090;49.770;18.760;2022-12-29T01:05:38;97633.14;;;2.58;68.80
75513;BME280;64090;49.770;18.760;2022-12-29T01:08:41;97630.92;;;2.57;68.85
75513;BME280;64090;49.770;18.760;2022-12-29T01:11:43;97631.54;;;2.62;68.90
75513;BME280;64090;49.770;18.760;2022-12-29T01:14:46;97627.76;;;2.70;68.84
75513;BME280;64090;49.770;18.760;2022-12-29T01:17:57;97626.42;;;2.77;68.81
75513;BME280;64090;49.770;18.760;2022-12-29T01:31:26;97625.20;;;3.24;68.24
75513;BME280;64090;49.770;18.760;2022-12-29T01:35:29;97631.61;;;3.35;67.93
75513;BME280;64090;49.770;18.760;2022-12-29T01:38:41;97630.31;;;3.46;67.45
75513;BME280;64090;49.770;18.760;2022-12-29T01:41:44;97627.34;;;3.52;67.31
75513;BME280;64090;49.770;18.760;2022-12-29T01:44:55;97622.64;;;3.60;66.86
75513;BME280;64090;49.770;18.760;2022-12-29T01:48:02;97617.70;;;3.65;66.79
75513;BME280;64090;49.770;18.760;2022-12-29T01:51:06;97611.05;;;3.70;66.35
75513;BME280;64090;49.770;18.760;2022-12-29T01:54:40;97609.11;;;3.75;66.25
75513;BME280;64090;49.770;18.760;2022-12-29T01:57:52;97607.83;;;3.81;65.94
75513;BME280;64090;49.770;18.760;2022-12-29T02:03:07;97601.34;;;3.90;65.96
75513;BME280;64090;49.770;18.760;2022-12-29T02:06:31;97598.86;;;3.94;65.87
75513;BME280;64090;49.770;18.760;2022-12-29T02:10:05;97594.08;;;3.95;65.93
75513;BME280;64090;49.770;18.760;2022-12-29T02:13:55;97583.39;;;3.96;65.87
75513;BME280;64090;49.770;18.760;2022-12-29T02:17:39;97586.71;;;3.98;65.61
75513;BME280;64090;49.770;18.760;2022-12-29T02:33:48;97575.26;;;4.13;66.01
75513;BME280;64090;49.770;18.760;2022-12-29T02:40:53;97556.02;;;4.15;66.18
75513;BME280;64090;49.770;18.760;2022-12-29T02:51:46;97553.02;;;4.09;66.45
75513;BME280;64090;49.770;18.760;2022-12-29T02:55:06;97551.30;;;4.07;66.33
75513;BME280;64090;49.770;18.760;2022-12-29T02:58:18;97550.61;;;4.05;66.27
75513;BME280;64090;49.770;18.760;2022-12-29T03:08:13;97552.30;;;3.94;67.16
75513;BME280;64090;49.770;18.760;2022-12-29T03:11:19;97568.66;;;3.93;67.09
75513;BME280;64090;49.770;18.760;2022-12-29T03:14:59;97558.77;;;3.92;67.43
75513;BME280;64090;49.770;18.760;2022-12-29T03:18:27;97555.47;;;3.90;67.45
75513;BME280;64090;49.770;18.760;2022-12-29T03:21:41;97546.35;;;3.90;67.71
75513;BME280;64090;49.770;18.760;2022-12-29T03:25:09;97554.36;;;3.92;67.30
75513;BME280;64090;49.770;18.760;2022-12-29T03:28:15;97567.23;;;3.98;67.37
75513;BME280;64090;49.770;18.760;2022-12-29T03:31:21;97563.27;;;3.97;67.40
75513;BME280;64090;49.770;18.760;2022-12-29T03:34:25;97549.91;;;3.97;67.38
75513;BME280;64090;49.770;18.760;2022-12-29T03:38:03;97539.09;;;3.99;67.49
75513;BME280;64090;49.770;18.760;2022-12-29T03:41:10;97522.84;;;3.95;67.61
75513;BME280;64090;49.770;18.760;2022-12-29T03:44:13;97534.12;;;3.91;67.79
75513;BME280;64090;49.770;18.760;2022-12-29T03:47:15;97541.49;;;3.88;67.94
75513;BME280;64090;49.770;18.760;2022-12-29T03:50:18;97541.17;;;3.86;68.21
75513;BME280;64090;49.770;18.760;2022-12-29T03:53:19;97540.54;;;3.85;68.46
75513;BME280;64090;49.770;18.760;2022-12-29T03:56:21;97537.06;;;3.83;68.70
75513;BME280;64090;49.770;18.760;2022-12-29T03:59:22;97537.91;;;3.82;68.93
75513;BME280;64090;49.770;18.760;2022-12-29T04:02:24;97531.23;;;3.79;69.22
75513;BME280;64090;49.770;18.760;2022-12-29T04:05:26;97532.90;;;3.74;69.34
75513;BME280;64090;49.770;18.760;2022-12-29T04:08:28;97537.87;;;3.69;69.45
75513;BME280;64090;49.770;18.760;2022-12-29T04:11:29;97533.96;;;3.68;69.41
75513;BME280;64090;49.770;18.760;2022-12-29T04:14:34;97542.21;;;3.70;69.14
75513;BME280;64090;49.770;18.760;2022-12-29T04:17:35;97541.77;;;3.69;69.29
75513;BME280;64090;49.770;18.760;2022-12-29T04:20:37;97537.48;;;3.68;68.92
75513;BME280;64090;49.770;18.760;2022-12-29T04:23:57;97535.69;;;3.72;68.62
75513;BME280;64090;49.770;18.760;2022-12-29T04:26:58;97536.45;;;3.73;68.43
75513;BME280;64090;49.770;18.760;2022-12-29T04:30:00;97533.61;;;3.75;68.38
75513;BME280;64090;49.770;18.760;2022-12-29T04:33:01;97532.24;;;3.73;68.65
75513;BME280;64090;49.770;18.760;2022-12-29T04:36:03;97535.52;;;3.65;68.94
75513;BME280;64090;49.770;18.760;2022-12-29T04:39:05;97524.05;;;3.60;69.08
75513;BME280;64090;49.770;18.760;2022-12-29T04:42:08;97518.38;;;3.57;69.22
75513;BME280;64090;49.770;18.760;2022-12-29T04:45:10;97514.60;;;3.56;69.40
75513;BME280;64090;49.770;18.760;2022-12-29T04:48:12;97511.60;;;3.58;69.28
75513;BME280;64090;49.770;18.760;2022-12-29T04:51:14;97505.73;;;3.57;69.61
75513;BME280;64090;49.770;18.760;2022-12-29T04:54:15;97498.55;;;3.59;69.49
75513;BME280;64090;49.770;18.760;2022-12-29T04:57:17;97496.98;;;3.60;69.73
75513;BME280;64090;49.770;18.760;2022-12-29T05:00:19;97498.25;;;3.60;69.67
75513;BME280;64090;49.770;18.760;2022-12-29T05:03:25;97500.35;;;3.63;69.74
75513;BME280;64090;49.770;18.760;2022-12-29T05:06:28;97499.86;;;3.64;69.83
75513;BME280;64090;49.770;18.760;2022-12-29T05:09:30;97503.97;;;3.67;69.81
75513;BME280;64090;49.770;18.760;2022-12-29T05:12:36;97493.22;;;3.69;70.11
75513;BME280;64090;49.770;18.760;2022-12-29T05:15:39;97494.36;;;3.72;70.24
75513;BME280;64090;49.770;18.760;2022-12-29T05:18:40;97490.42;;;3.74;70.31
75513;BME280;64090;49.770;18.760;2022-12-29T05:21:42;97500.16;;;3.78;70.30
75513;BME280;64090;49.770;18.760;2022-12-29T05:24:44;97498.81;;;3.84;70.25
75513;BME280;64090;49.770;18.760;2022-12-29T05:27:50;97495.93;;;3.89;70.16
75513;BME280;64090;49.770;18.760;2022-12-29T05:30:52;97501.54;;;3.93;70.34
75513;BME280;64090;49.770;18.760;2022-12-29T05:33:53;97497.64;;;3.91;70.49
75513;BME280;64090;49.770;18.760;2022-12-29T05:36:55;97506.02;;;3.91;70.55
75513;BME280;64090;49.770;18.760;2022-12-29T05:39:56;97508.54;;;3.94;70.65
75513;BME280;64090;49.770;18.760;2022-12-29T05:42:58;97509.77;;;3.93;70.71
75513;BME280;64090;49.770;18.760;2022-12-29T05:46:00;97509.37;;;3.91;70.94
75513;BME280;64090;49.770;18.760;2022-12-29T05:49:01;97502.98;;;3.90;70.94
75513;BME280;64090;49.770;18.760;2022-12-29T05:52:03;97499.48;;;3.89;71.12
75513;BME280;64090;49.770;18.760;2022-12-29T05:55:05;97502.27;;;3.89;71.17
75513;BME280;64090;49.770;18.760;2022-12-29T05:58:07;97492.52;;;3.88;71.26
75513;BME280;64090;49.770;18.760;2022-12-29T06:01:09;97492.54;;;3.91;71.42
75513;BME280;64090;49.770;18.760;2022-12-29T06:04:10;97501.02;;;3.92;71.35
75513;BME280;64090;49.770;18.760;2022-12-29T06:07:12;97503.14;;;3.97;71.31
75513;BME280;64090;49.770;18.760;2022-12-29T06:10:13;97505.04;;;4.01;71.24
75513;BME280;64090;49.770;18.760;2022-12-29T06:13:15;97503.86;;;4.05;71.33
75513;BME280;64090;49.770;18.760;2022-12-29T06:16:18;97509.06;;;4.07;71.23
75513;BME280;64090;49.770;18.760;2022-12-29T06:19:19;97514.14;;;4.08;71.23
75513;BME280;64090;49.770;18.760;2022-12-29T06:22:21;97511.52;;;4.08;71.53
75513;BME280;64090;49.770;18.760;2022-12-29T06:25:22;97515.49;;;4.10;71.35
75513;BME280;64090;49.770;18.760;2022-12-29T06:28:24;97515.72;;;4.10;71.57
75513;BME280;64090;49.770;18.760;2022-12-29T06:31:28;97514.88;;;4.10;71.75
75513;BME280;64090;49.770;18.760;2022-12-29T06:34:30;97512.48;;;4.09;71.81
75513;BME280;64090;49.770;18.760;2022-12-29T06:37:32;97507.30;;;4.11;71.85
75513;BME280;64090;49.770;18.760;2022-12-29T06:40:33;97507.85;;;4.13;71.88
75513;BME280;64090;49.770;18.760;2022-12-29T06:43:35;97502.95;;;4.13;71.66
75513;BME280;64090;49.770;18.760;2022-12-29T06:46:39;97491.17;;;4.15;71.82
75513;BME280;64090;49.770;18.760;2022-12-29T06:49:40;97486.94;;;4.15;71.85
75513;BME280;64090;49.770;18.760;2022-12-29T06:52:42;97480.91;;;4.14;72.11
75513;BME280;64090;49.770;18.760;2022-12-29T06:55:43;97480.29;;;4.15;72.09
75513;BME280;64090;49.770;18.760;2022-12-29T06:58:45;97477.45;;;4.18;72.02
75513;BME280;64090;49.770;18.760;2022-12-29T07:01:46;97478.79;;;4.22;71.99
75513;BME280;64090;49.770;18.760;2022-12-29T07:04:48;97476.83;;;4.26;72.04
75513;BME280;64090;49.770;18.760;2022-12-29T07:07:50;97470.61;;;4.26;72.23
75513;BME280;64090;49.770;18.760;2022-12-29T07:10:51;97474.07;;;4.31;72.19
75513;BME280;64090;49.770;18.760;2022-12-29T07:13:53;97473.23;;;4.34;72.29
75513;BME280;64090;49.770;18.760;2022-12-29T07:16:54;97471.46;;;4.38;72.22
75513;BME280;64090;49.770;18.760;2022-12-29T07:19:56;97457.50;;;4.37;72.21
75513;BME280;64090;49.770;18.760;2022-12-29T07:22:58;97462.97;;;4.37;72.40
75513;BME280;64090;49.770;18.760;2022-12-29T07:26:07;97457.65;;;4.39;72.37
75513;BME280;64090;49.770;18.760;2022-12-29T07:29:10;97456.69;;;4.39;72.40
75513;BME280;64090;49.770;18.760;2022-12-29T07:32:12;97454.73;;;4.40;72.61
75513;BME280;64090;49.770;18.760;2022-12-29T07:35:13;97449.98;;;4.40;72.28
75513;BME280;64090;49.770;18.760;2022-12-29T07:38:15;97459.35;;;4.41;72.60
75513;BME280;64090;49.770;18.760;2022-12-29T07:41:17;97471.27;;;4.43;72.64
75513;BME280;64090;49.770;18.760;2022-12-29T07:44:19;97489.70;;;4.46;72.68
75513;BME280;64090;49.770;18.760;2022-12-29T07:47:20;97497.11;;;4.50;72.43
75513;BME280;64090;49.770;18.760;2022-12-29T07:50:22;97514.32;;;4.52;72.41
75513;BME280;64090;49.770;18.760;2022-12-29T07:53:24;97519.91;;;4.54;72.59
75513;BME280;64090;49.770;18.760;2022-12-29T07:56:25;97519.59;;;4.54;72.49
75513;BME280;64090;49.770;18.760;2022-12-29T07:59:27;97515.62;;;4.57;72.25
75513;BME280;64090;49.770;18.760;2022-12-29T08:02:28;97518.65;;;4.63;72.44
75513;BME280;64090;49.770;18.760;2022-12-29T08:05:32;97512.30;;;4.66;72.39
75513;BME280;64090;49.770;18.760;2022-12-29T08:08:34;97505.66;;;4.72;72.12
75513;BME280;64090;49.770;18.760;2022-12-29T08:11:36;97504.45;;;4.81;71.94
75513;BME280;64090;49.770;18.760;2022-12-29T08:14:38;97503.58;;;4.90;71.80
75513;BME280;64090;49.770;18.760;2022-12-29T08:17:39;97498.52;;;4.99;71.49
75513;BME280;64090;49.770;18.760;2022-12-29T08:20:41;97497.11;;;5.05;71.42
75513;BME280;64090;49.770;18.760;2022-12-29T08:23:42;97498.18;;;5.08;71.45
75513;BME280;64090;49.770;18.760;2022-12-29T08:26:43;97502.84;;;5.11;71.79
75513;BME280;64090;49.770;18.760;2022-12-29T08:29:45;97501.05;;;5.12;71.74
75513;BME280;64090;49.770;18.760;2022-12-29T08:32:46;97500.16;;;5.15;71.77
75513;BME280;64090;49.770;18.760;2022-12-29T08:35:48;97505.67;;;5.18;71.59
75513;BME280;64090;49.770;18.760;2022-12-29T08:38:50;97514.81;;;5.26;71.51
75513;BME280;64090;49.770;18.760;2022-12-29T08:41:52;97508.16;;;5.28;71.46
75513;BME280;64090;49.770;18.760;2022-12-29T08:44:53;97501.36;;;5.31;71.54
75513;BME280;64090;49.770;18.760;2022-12-29T08:47:54;97503.02;;;5.30;71.52
75513;BME280;64090;49.770;18.760;2022-12-29T08:50:56;97504.80;;;5.33;71.64
75513;BME280;64090;49.770;18.760;2022-12-29T08:53:58;97495.65;;;5.33;71.50
75513;BME280;64090;49.770;18.760;2022-12-29T08:56:59;97497.36;;;5.40;71.17
75513;BME280;64090;49.770;18.760;2022-12-29T09:00:02;97492.52;;;5.41;71.22
75513;BME280;64090;49.770;18.760;2022-12-29T09:03:04;97487.51;;;5.44;71.00
75513;BME280;64090;49.770;18.760;2022-12-29T09:06:06;97499.66;;;5.49;71.33
75513;BME280;64090;49.770;18.760;2022-12-29T09:09:08;97495.06;;;5.53;71.23
75513;BME280;64090;49.770;18.760;2022-12-29T09:12:09;97486.81;;;5.61;71.00
75513;BME280;64090;49.770;18.760;2022-12-29T09:15:11;97482.75;;;5.69;70.70
75513;BME280;64090;49.770;18.760;2022-12-29T09:18:13;97482.95;;;5.76;70.47
75513;BME280;64090;49.770;18.760;2022-12-29T09:21:21;97484.65;;;5.81;70.30
75513;BME280;64090;49.770;18.760;2022-12-29T09:24:23;97474.77;;;5.82;70.45
75513;BME280;64090;49.770;18.760;2022-12-29T09:27:24;97479.86;;;5.81;70.31
75513;BME280;64090;49.770;18.760;2022-12-29T09:30:26;97481.58;;;5.80;70.71
75513;BME280;64090;49.770;18.760;2022-12-29T09:33:27;97474.80;;;5.77;70.67
75513;BME280;64090;49.770;18.760;2022-12-29T09:36:29;97473.36;;;5.72;70.80
75513;BME280;64090;49.770;18.760;2022-12-29T09:39:31;97464.59;;;5.66;71.24
75513;BME280;64090;49.770;18.760;2022-12-29T09:42:38;97467.33;;;5.65;71.36
75513;BME280;64090;49.770;18.760;2022-12-29T09:46:38;97462.59;;;5.68;71.21
75513;BME280;64090;49.770;18.760;2022-12-29T09:52:46;97477.23;;;5.87;70.62
75513;BME280;64090;49.770;18.760;2022-12-29T09:55:53;97474.17;;;5.97;70.55
75513;BME280;64090;49.770;18.760;2022-12-29T09:59:02;97475.86;;;6.17;70.41
75513;BME280;64090;49.770;18.760;2022-12-29T10:02:27;97478.21;;;6.40;69.84
75513;BME280;64090;49.770;18.760;2022-12-29T10:22:24;97461.76;;;7.25;67.01
75513;BME280;64090;49.770;18.760;2022-12-29T10:25:32;97457.12;;;7.24;66.66
75513;BME280;64090;49.770;18.760;2022-12-29T10:31:58;97456.79;;;7.18;67.47
75513;BME280;64090;49.770;18.760;2022-12-29T10:35:05;97454.20;;;7.11;67.45
75513;BME280;64090;49.770;18.760;2022-12-29T10:38:25;97461.30;;;7.03;67.63
75513;BME280;64090;49.770;18.760;2022-12-29T10:41:36;97460.70;;;7.05;68.08
75513;BME280;64090;49.770;18.760;2022-12-29T10:44:40;97462.38;;;7.10;68.12
75513;BME280;64090;49.770;18.760;2022-12-29T10:47:59;97459.70;;;7.16;67.87
75513;BME280;64090;49.770;18.760;2022-12-29T10:51:05;97456.73;;;7.21;67.68
75513;BME280;64090;49.770;18.760;2022-12-29T10:54:21;97455.39;;;7.28;67.44
75513;BME280;64090;49.770;18.760;2022-12-29T10:57:45;97462.31;;;7.32;67.54
75513;BME280;64090;49.770;18.760;2022-12-29T11:00:52;97456.70;;;7.36;67.18
75513;BME280;64090;49.770;18.760;2022-12-29T11:04:02;97460.27;;;7.34;66.64
75513;BME280;64090;49.770;18.760;2022-12-29T11:07:05;97450.90;;;7.42;66.78
75513;BME280;64090;49.770;18.760;2022-12-29T11:10:38;97432.27;;;7.47;66.28
75513;BME280;64090;49.770;18.760;2022-12-29T11:17:01;97423.86;;;7.69;66.45
75513;BME280;64090;49.770;18.760;2022-12-29T11:20:30;97423.52;;;7.79;66.33
75513;BME280;64090;49.770;18.760;2022-12-29T11:23:37;97425.97;;;7.98;66.35
75513;BME280;64090;49.770;18.760;2022-12-29T11:26:39;97425.86;;;8.07;65.41
75513;BME280;64090;49.770;18.760;2022-12-29T11:29:44;97430.61;;;8.13;65.39
75513;BME280;64090;49.770;18.760;2022-12-29T11:32:54;97436.09;;;8.19;64.98
75513;BME280;64090;49.770;18.760;2022-12-29T11:36:03;97437.68;;;8.19;64.80
75513;BME280;64090;49.770;18.760;2022-12-29T11:39:05;97436.98;;;8.18;65.01
75513;BME280;64090;49.770;18.760;2022-12-29T11:42:21;97443.63;;;8.25;64.58
75513;BME280;64090;49.770;18.760;2022-12-29T11:45:35;97445.40;;;8.24;64.10
75513;BME280;64090;49.770;18.760;2022-12-29T11:48:39;97439.77;;;8.18;64.72
75513;BME280;64090;49.770;18.760;2022-12-29T11:51:45;97434.60;;;8.12;64.79
75513;BME280;64090;49.770;18.760;2022-12-29T11:54:47;97435.55;;;8.10;64.59
75513;BME280;64090;49.770;18.760;2022-12-29T11:57:50;97439.14;;;8.00;64.78
75513;BME280;64090;49.770;18.760;2022-12-29T12:00:53;97442.02;;;7.97;64.86
75513;BME280;64090;49.770;18.760;2022-12-29T12:04:13;97446.12;;;7.95;64.76
75513;BME280;64090;49.770;18.760;2022-12-29T12:07:38;97439.53;;;7.96;64.79
75513;BME280;64090;49.770;18.760;2022-12-29T12:10:57;97445.48;;;7.91;64.65
75513;BME280;64090;49.770;18.760;2022-12-29T12:17:26;97424.91;;;7.98;65.10
75513;BME280;64090;49.770;18.760;2022-12-29T12:20:45;97436.36;;;7.99;64.84
75513;BME280;64090;49.770;18.760;2022-12-29T12:27:20;97437.99;;;8.07;65.07
75513;BME280;64090;49.770;18.760;2022-12-29T12:30:24;97442.91;;;8.10;64.40
75513;BME280;64090;49.770;18.760;2022-12-29T12:33:32;97442.64;;;8.16;64.48
75513;BME280;64090;49.770;18.760;2022-12-29T12:36:47;97434.76;;;8.13;64.34
75513;BME280;64090;49.770;18.760;2022-12-29T12:40:21;97436.39;;;8.15;64.86
75513;BME280;64090;49.770;18.760;2022-12-29T12:43:41;97437.48;;;8.21;64.61
75513;BME280;64090;49.770;18.760;2022-12-29T12:56:47;97422.07;;;8.28;64.13
75513;BME280;64090;49.770;18.760;2022-12-29T13:00:08;97421.36;;;8.36;63.66
75513;BME280;64090;49.770;18.760;2022-12-29T13:03:22;97430.94;;;8.33;63.76
75513;BME280;64090;49.770;18.760;2022-12-29T13:06:47;97424.57;;;8.31;63.72
75513;BME280;64090;49.770;18.760;2022-12-29T13:23:37;97434.38;;;7.58;65.34
75513;BME280;64090;49.770;18.760;2022-12-29T13:26:50;97423.86;;;7.48;65.28
75513;BME280;64090;49.770;18.760;2022-12-29T13:30:01;97423.00;;;7.41;65.46
75513;BME280;64090;49.770;18.760;2022-12-29T13:33:07;97433.55;;;7.32;65.57
75513;BME280;64090;49.770;18.760;2022-12-29T13:36:36;97441.52;;;7.21;66.32
75513;BME280;64090;49.770;18.760;2022-12-29T13:39:52;97445.84;;;7.08;66.18
75513;BME280;64090;49.770;18.760;2022-12-29T13:42:57;97442.73;;;6.95;66.57
75513;BME280;64090;49.770;18.760;2022-12-29T13:46:04;97436.81;;;6.85;66.81
75513;BME280;64090;49.770;18.760;2022-12-29T13:49:22;97423.05;;;6.73;67.28
75513;BME280;64090;49.770;18.760;2022-12-29T14:06:11;97432.58;;;6.48;67.81
75513;BME280;64090;49.770;18.760;2022-12-29T14:12:48;97429.73;;;6.33;68.06
75513;BME280;64090;49.770;18.760;2022-12-29T14:15:54;97427.95;;;6.30;68.42
75513;BME280;64090;49.770;18.760;2022-12-29T14:19:04;97423.21;;;6.24;68.47
75513;BME280;64090;49.770;18.760;2022-12-29T14:22:07;97423.00;;;6.20;68.65
75513;BME280;64090;49.770;18.760;2022-12-29T14:28:50;97416.83;;;6.13;69.02
75513;BME280;64090;49.770;18.760;2022-12-29T14:31:52;97417.34;;;6.09;69.35
75513;BME280;64090;49.770;18.760;2022-12-29T14:34:58;97416.05;;;6.03;69.40
75513;BME280;64090;49.770;18.760;2022-12-29T14:38:20;97408.86;;;5.96;69.73
75513;BME280;64090;49.770;18.760;2022-12-29T14:41:27;97413.31;;;5.91;69.96
75513;BME280;64090;49.770;18.760;2022-12-29T14:44:32;97407.24;;;5.86;70.08
75513;BME280;64090;49.770;18.760;2022-12-29T14:47:37;97402.37;;;5.82;70.38
75513;BME280;64090;49.770;18.760;2022-12-29T14:50:43;97407.23;;;5.78;70.55
75513;BME280;64090;49.770;18.760;2022-12-29T14:53:51;97408.75;;;5.75;70.62
75513;BME280;64090;49.770;18.760;2022-12-29T14:56:58;97409.03;;;5.71;70.69
75513;BME280;64090;49.770;18.760;2022-12-29T15:00:05;97407.38;;;5.65;71.03
75513;BME280;64090;49.770;18.760;2022-12-29T15:03:14;97405.02;;;5.59;70.93
75513;BME280;64090;49.770;18.760;2022-12-29T15:06:18;97404.06;;;5.57;71.09
75513;BME280;64090;49.770;18.760;2022-12-29T15:09:44;97398.33;;;5.56;71.26
75513;BME280;64090;49.770;18.760;2022-12-29T15:12:54;97398.10;;;5.54;71.58
75513;BME280;64090;49.770;18.760;2022-12-29T15:15:56;97387.81;;;5.55;71.41
75513;BME280;64090;49.770;18.760;2022-12-29T15:18:58;97391.16;;;5.60;71.32
75513;BME280;64090;49.770;18.760;2022-12-29T15:22:00;97395.43;;;5.60;71.46
75513;BME280;64090;49.770;18.760;2022-12-29T15:25:03;97388.65;;;5.63;71.22
75513;BME280;64090;49.770;18.760;2022-12-29T15:28:06;97386.43;;;5.67;71.25
75513;BME280;64090;49.770;18.760;2022-12-29T15:31:22;97398.56;;;5.73;71.02
75513;BME280;64090;49.770;18.760;2022-12-29T15:34:31;97404.67;;;5.75;70.80
75513;BME280;64090;49.770;18.760;2022-12-29T15:37:34;97403.72;;;5.74;70.86
75513;BME280;64090;49.770;18.760;2022-12-29T15:40:39;97404.73;;;5.74;70.68
75513;BME280;64090;49.770;18.760;2022-12-29T15:47:04;97410.19;;;5.73;70.53
75513;BME280;64090;49.770;18.760;2022-12-29T15:50:19;97404.73;;;5.73;70.54
75513;BME280;64090;49.770;18.760;2022-12-29T15:53:28;97402.86;;;5.72;70.43
75513;BME280;64090;49.770;18.760;2022-12-29T15:56:32;97400.45;;;5.72;70.58
75513;BME280;64090;49.770;18.760;2022-12-29T15:59:34;97402.54;;;5.71;70.55
75513;BME280;64090;49.770;18.760;2022-12-29T16:02:35;97401.13;;;5.71;70.65
75513;BME280;64090;49.770;18.760;2022-12-29T16:05:38;97405.66;;;5.68;70.66
75513;BME280;64090;49.770;18.760;2022-12-29T16:08:40;97405.83;;;5.65;70.59
75513;BME280;64090;49.770;18.760;2022-12-29T16:11:53;97409.58;;;5.63;70.51
75513;BME280;64090;49.770;18.760;2022-12-29T16:14:58;97411.41;;;5.61;70.56
75513;BME280;64090;49.770;18.760;2022-12-29T16:18:01;97411.37;;;5.61;70.46
75513;BME280;64090;49.770;18.760;2022-12-29T16:21:04;97409.14;;;5.61;70.51
75513;BME280;64090;49.770;18.760;2022-12-29T16:24:12;97411.67;;;5.63;70.26
75513;BME280;64090;49.770;18.760;2022-12-29T16:27:22;97413.44;;;5.63;70.15
75513;BME280;64090;49.770;18.760;2022-12-29T16:30:32;97411.27;;;5.62;70.24
75513;BME280;64090;49.770;18.760;2022-12-29T16:33:46;97416.72;;;5.60;70.41
75513;BME280;64090;49.770;18.760;2022-12-29T16:40:31;97422.05;;;5.60;70.17
75513;BME280;64090;49.770;18.760;2022-12-29T16:43:36;97428.27;;;5.62;70.31
75513;BME280;64090;49.770;18.760;2022-12-29T16:47:16;97430.92;;;5.61;70.39
75513;BME280;64090;49.770;18.760;2022-12-29T16:50:21;97437.13;;;5.60;70.15
75513;BME280;64090;49.770;18.760;2022-12-29T16:53:36;97430.78;;;5.59;70.20
75513;BME280;64090;49.770;18.760;2022-12-29T16:56:43;97428.25;;;5.58;70.35
75513;BME280;64090;49.770;18.760;2022-12-29T16:59:51;97432.06;;;5.53;70.47
75513;BME280;64090;49.770;18.760;2022-12-29T17:02:58;97428.81;;;5.47;70.54
75513;BME280;64090;49.770;18.760;2022-12-29T17:06:02;97425.66;;;5.44;70.66
75513;BME280;64090;49.770;18.760;2022-12-29T17:09:23;97429.84;;;5.42;70.78
75513;BME280;64090;49.770;18.760;2022-12-29T17:12:28;97427.80;;;5.38;71.00
75513;BME280;64090;49.770;18.760;2022-12-29T17:15:32;97430.95;;;5.37;70.82
75513;BME280;64090;49.770;18.760;2022-12-29T17:18:37;97424.59;;;5.37;71.06
75513;BME280;64090;49.770;18.760;2022-12-29T17:21:40;97424.51;;;5.38;70.97
75513;BME280;64090;49.770;18.760;2022-12-29T17:24:43;97418.36;;;5.36;71.00
75513;BME280;64090;49.770;18.760;2022-12-29T17:27:58;97422.48;;;5.35;71.03
75513;BME280;64090;49.770;18.760;2022-12-29T17:31:03;97430.89;;;5.36;71.27
75513;BME280;64090;49.770;18.760;2022-12-29T17:34:11;97432.48;;;5.34;71.23
75513;BME280;64090;49.770;18.760;2022-12-29T17:37:28;97435.58;;;5.35;71.32
75513;BME280;64090;49.770;18.760;2022-12-29T17:40:32;97435.23;;;5.36;70.98
75513;BME280;64090;49.770;18.760;2022-12-29T17:43:35;97427.45;;;5.38;71.01
75513;BME280;64090;49.770;18.760;2022-12-29T17:46:38;97428.54;;;5.44;71.04
75513;BME280;64090;49.770;18.760;2022-12-29T17:49:41;97431.09;;;5.48;70.66
75513;BME280;64090;49.770;18.760;2022-12-29T17:53:00;97427.70;;;5.54;70.75
75513;BME280;64090;49.770;18.760;2022-12-29T17:56:03;97433.31;;;5.63;70.54
75513;BME280;64090;49.770;18.760;2022-12-29T17:59:11;97429.20;;;5.68;70.27
75513;BME280;64090;49.770;18.760;2022-12-29T18:02:26;97423.77;;;5.72;70.13
75513;BME280;64090;49.770;18.760;2022-12-29T18:05:30;97424.56;;;5.76;69.93
75513;BME280;64090;49.770;18.760;2022-12-29T18:08:37;97426.04;;;5.80;69.93
75513;BME280;64090;49.770;18.760;2022-12-29T18:11:42;97429.09;;;5.81;69.85
75513;BME280;64090;49.770;18.760;2022-12-29T18:14:45;97421.40;;;5.85;69.46
75513;BME280;64090;49.770;18.760;2022-12-29T18:17:52;97418.96;;;5.89;69.37
75513;BME280;64090;49.770;18.760;2022-12-29T18:20:58;97418.67;;;5.90;69.20
75513;BME280;64090;49.770;18.760;2022-12-29T18:24:02;97417.16;;;5.93;69.33
75513;BME280;64090;49.770;18.760;2022-12-29T18:27:11;97413.42;;;5.93;69.05
75513;BME280;64090;49.770;18.760;2022-12-29T18:30:16;97411.23;;;5.92;69.13
75513;BME280;64090;49.770;18.760;2022-12-29T18:33:20;97409.13;;;5.87;69.07
75513;BME280;64090;49.770;18.760;2022-12-29T18:36:28;97408.70;;;5.83;69.37
75513;BME280;64090;49.770;18.760;2022-12-29T18:39:32;97406.90;;;5.78;69.42
75513;BME280;64090;49.770;18.760;2022-12-29T18:42:34;97413.34;;;5.77;69.15